sensor_id;sensor_type;location;lat;lon;timestamp;P1;durP1;ratioP1;P2;durP2;ratioP2
27357;SDS011;14831;50.474;7.616;2023-08-08T00:00:57;2.1;;;1.8;;
27357;SDS011;14831;50.474;7.616;2023-08-08T00:05:57;2.6;;;1.8;;
27357;SDS011;14831;50.474;7.616;2023-08-08T00:10:57;2.6;;;1.8;;
27357;SDS011;14831;50.474;7.616;2023-08-08T00:15:57;2.6;;;1.8;;
27357;SDS011;14831;50.474;7.616;2023-08-08T00:20:57;2.6;;;1.8;;
27357;SDS011;14831;50.474;7.616;2023-08-08T00:25:57;2.6;;;1.8;;
27357;SDS011;14831;50.474;7.616;2023-08-08T00:30:57;2.6;;;1.8;;
27357;SDS011;14831;50.474;7.616;2023-08-08T00:35:57;3.2;;;2.0;;
27357;SDS011;14831;50.474;7.616;2023-08-08T00:40:57;3.2;;;2.0;;
27357;SDS011;14831;50.474;7.616;2023-08-08T00:45:57;3.2;;;2.0;;
27357;SDS011;14831;50.474;7.616;2023-08-08T00:50:57;3.2;;;2.0;;
27357;SDS011;14831;50.474;7.616;2023-08-08T00:55:58;3.2;;;2.0;;
27357;SDS011;14831;50.474;7.616;2023-08-08T01:00:57;3.2;;;2.0;;
27357;SDS011;14831;50.474;7.616;2023-08-08T01:06:01;2.8;;;2.2;;
27357;SDS011;14831;50.474;7.616;2023-08-08T01:10:57;2.8;;;2.2;;
27357;SDS011;14831;50.474;7.616;2023-08-08T01:15:57;2.8;;;2.2;;
27357;SDS011;14831;50.474;7.616;2023-08-08T01:20:58;2.8;;;2.2;;
27357;SDS011;14831;50.474;7.616;2023-08-08T01:25:58;2.8;;;2.2;;
27357;SDS011;14831;50.474;7.616;2023-08-08T01:30:57;2.8;;;2.2;;
27357;SDS011;14831;50.474;7.616;2023-08-08T01:36:00;2.8;;;2.4;;
27357;SDS011;14831;50.474;7.616;2023-08-08T01:40:58;2.8;;;2.4;;
27357;SDS011;14831;50.474;7.616;2023-08-08T01:45:57;2.8;;;2.4;;
27357;SDS011;14831;50.474;7.616;2023-08-08T01:50:57;2.8;;;2.4;;
27357;SDS011;14831;50.474;7.616;2023-08-08T01:55:57;2.8;;;2.4;;
27357;SDS011;14831;50.474;7.616;2023-08-08T02:00:57;2.8;;;2.4;;
27357;SDS011;14831;50.474;7.616;2023-08-08T02:05:57;2.7;;;2.4;;
27357;SDS011;14831;50.474;7.616;2023-08-08T02:10:57;2.7;;;2.4;;
27357;SDS011;14831;50.474;7.616;2023-08-08T02:15:57;2.7;;;2.4;;
27357;SDS011;14831;50.474;7.616;2023-08-08T02:20:57;2.7;;;2.4;;
27357;SDS011;14831;50.474;7.616;2023-08-08T02:25:57;2.7;;;2.4;;
27357;SDS011;14831;50.474;7.616;2023-08-08T02:30:57;2.7;;;2.4;;
27357;SDS011;14831;50.474;7.616;2023-08-08T02:35:57;4.5;;;2.7;;
27357;SDS011;14831;50.474;7.616;2023-08-08T02:40:57;4.5;;;2.7;;
27357;SDS011;14831;50.474;7.616;2023-08-08T02:45:57;4.5;;;2.7;;
27357;SDS011;14831;50.474;7.616;2023-08-08T02:50:57;4.5;;;2.7;;
27357;SDS011;14831;50.474;7.616;2023-08-08T02:55:57;4.5;;;2.7;;
27357;SDS011;14831;50.474;7.616;2023-08-08T03:00:57;4.5;;;2.7;;
27357;SDS011;14831;50.474;7.616;2023-08-08T03:05:57;3.8;;;2.0;;
27357;SDS011;14831;50.474;7.616;2023-08-08T03:10:57;3.8;;;2.0;;
27357;SDS011;14831;50.474;7.616;2023-08-08T03:15:57;3.8;;;2.0;;
27357;SDS011;14831;50.474;7.616;2023-08-08T03:20:57;3.8;;;2.0;;
27357;SDS011;14831;50.474;7.616;2023-08-08T03:25:57;3.8;;;2.0;;
27357;SDS011;14831;50.474;7.616;2023-08-08T03:30:57;3.8;;;2.0;;
27357;SDS011;14831;50.474;7.616;2023-08-08T03:35:57;3.2;;;2.2;;
27357;SDS011;14831;50.474;7.616;2023-08-08T03:40:57;3.2;;;2.2;;
27357;SDS011;14831;50.474;7.616;2023-08-08T03:45:57;3.2;;;2.2;;
27357;SDS011;14831;50.474;7.616;2023-08-08T03:50:57;3.2;;;2.2;;
27357;SDS011;14831;50.474;7.616;2023-08-08T03:55:58;3.2;;;2.2;;
27357;SDS011;14831;50.474;7.616;2023-08-08T04:00:57;3.2;;;2.2;;
27357;SDS011;14831;50.474;7.616;2023-08-08T04:05:57;2.8;;;2.1;;
27357;SDS011;14831;50.474;7.616;2023-08-08T04:10:57;2.8;;;2.1;;
27357;SDS011;14831;50.474;7.616;2023-08-08T04:15:57;2.8;;;2.1;;
27357;SDS011;14831;50.474;7.616;2023-08-08T04:20:57;2.8;;;2.1;;
27357;SDS011;14831;50.474;7.616;2023-08-08T04:25:57;2.8;;;2.1;;
27357;SDS011;14831;50.474;7.616;2023-08-08T04:30:57;2.8;;;2.1;;
27357;SDS011;14831;50.474;7.616;2023-08-08T04:35:57;4.4;;;2.1;;
27357;SDS011;14831;50.474;7.616;2023-08-08T04:40:57;4.4;;;2.1;;
27357;SDS011;14831;50.474;7.616;2023-08-08T04:45:57;4.4;;;2.1;;
27357;SDS011;14831;50.474;7.616;2023-08-08T04:50:57;4.4;;;2.1;;
27357;SDS011;14831;50.474;7.616;2023-08-08T04:55:57;4.4;;;2.1;;
27357;SDS011;14831;50.474;7.616;2023-08-08T05:00:57;4.4;;;2.1;;
27357;SDS011;14831;50.474;7.616;2023-08-08T05:05:57;4.4;;;1.9;;
27357;SDS011;14831;50.474;7.616;2023-08-08T05:10:57;4.4;;;1.9;;
27357;SDS011;14831;50.474;7.616;2023-08-08T05:15:57;4.4;;;1.9;;
27357;SDS011;14831;50.474;7.616;2023-08-08T05:20:57;4.4;;;1.9;;
27357;SDS011;14831;50.474;7.616;2023-08-08T05:25:57;4.4;;;1.9;;
27357;SDS011;14831;50.474;7.616;2023-08-08T05:30:57;4.4;;;1.9;;
27357;SDS011;14831;50.474;7.616;2023-08-08T05:35:57;3.1;;;1.5;;
27357;SDS011;14831;50.474;7.616;2023-08-08T05:40:57;3.1;;;1.5;;
27357;SDS011;14831;50.474;7.616;2023-08-08T05:45:57;3.1;;;1.5;;
27357;SDS011;14831;50.474;7.616;2023-08-08T05:50:57;3.1;;;1.5;;
27357;SDS011;14831;50.474;7.616;2023-08-08T05:55:57;3.1;;;1.5;;
27357;SDS011;14831;50.474;7.616;2023-08-08T06:00:57;3.1;;;1.5;;
27357;SDS011;14831;50.474;7.616;2023-08-08T06:05:57;6.5;;;2.3;;
27357;SDS011;14831;50.474;7.616;2023-08-08T06:10:57;6.5;;;2.3;;
27357;SDS011;14831;50.474;7.616;2023-08-08T06:15:57;6.5;;;2.3;;
27357;SDS011;14831;50.474;7.616;2023-08-08T06:20:57;6.5;;;2.3;;
27357;SDS011;14831;50.474;7.616;2023-08-08T06:25:57;6.5;;;2.3;;
27357;SDS011;14831;50.474;7.616;2023-08-08T06:30:58;6.5;;;2.3;;
27357;SDS011;14831;50.474;7.616;2023-08-08T06:35:57;4.2;;;2.0;;
27357;SDS011;14831;50.474;7.616;2023-08-08T06:40:57;4.2;;;2.0;;
27357;SDS011;14831;50.474;7.616;2023-08-08T06:45:57;4.2;;;2.0;;
27357;SDS011;14831;50.474;7.616;2023-08-08T06:50:57;4.2;;;2.0;;
27357;SDS011;14831;50.474;7.616;2023-08-08T06:55:58;4.2;;;2.0;;
27357;SDS011;14831;50.474;7.616;2023-08-08T07:00:57;4.2;;;2.0;;
27357;SDS011;14831;50.474;7.616;2023-08-08T07:05:57;4.6;;;2.0;;
27357;SDS011;14831;50.474;7.616;2023-08-08T07:10:58;4.6;;;2.0;;
27357;SDS011;14831;50.474;7.616;2023-08-08T07:15:57;4.6;;;2.0;;
27357;SDS011;14831;50.474;7.616;2023-08-08T07:20:57;4.6;;;2.0;;
27357;SDS011;14831;50.474;7.616;2023-08-08T07:25:57;4.6;;;2.0;;
27357;SDS011;14831;50.474;7.616;2023-08-08T07:30:57;4.6;;;2.0;;
27357;SDS011;14831;50.474;7.616;2023-08-08T07:35:57;4.7;;;2.5;;
27357;SDS011;14831;50.474;7.616;2023-08-08T07:40:57;4.7;;;2.5;;
27357;SDS011;14831;50.474;7.616;2023-08-08T07:45:58;4.7;;;2.5;;
27357;SDS011;14831;50.474;7.616;2023-08-08T07:50:57;4.7;;;2.5;;
27357;SDS011;14831;50.474;7.616;2023-08-08T07:55:57;4.7;;;2.5;;
27357;SDS011;14831;50.474;7.616;2023-08-08T08:00:57;4.7;;;2.5;;
27357;SDS011;14831;50.474;7.616;2023-08-08T08:05:57;4.5;;;2.7;;
27357;SDS011;14831;50.474;7.616;2023-08-08T08:10:57;4.5;;;2.7;;
27357;SDS011;14831;50.474;7.616;2023-08-08T08:15:57;4.5;;;2.7;;
27357;SDS011;14831;50.474;7.616;2023-08-08T08:20:57;4.5;;;2.7;;
27357;SDS011;14831;50.474;7.616;2023-08-08T08:25:57;4.5;;;2.7;;
27357;SDS011;14831;50.474;7.616;2023-08-08T08:30:57;4.5;;;2.7;;
27357;SDS011;14831;50.474;7.616;2023-08-08T08:35:57;5.1;;;2.7;;
27357;SDS011;14831;50.474;7.616;2023-08-08T08:40:58;5.1;;;2.7;;
27357;SDS011;14831;50.474;7.616;2023-08-08T08:46:00;5.1;;;2.7;;
27357;SDS011;14831;50.474;7.616;2023-08-08T08:50:57;5.1;;;2.7;;
27357;SDS011;14831;50.474;7.616;2023-08-08T08:55:57;5.1;;;2.7;;
27357;SDS011;14831;50.474;7.616;2023-08-08T09:00:58;5.1;;;2.7;;
27357;SDS011;14831;50.474;7.616;2023-08-08T09:05:58;3.9;;;3.0;;
27357;SDS011;14831;50.474;7.616;2023-08-08T09:10:57;3.9;;;3.0;;
27357;SDS011;14831;50.474;7.616;2023-08-08T09:15:59;3.9;;;3.0;;
27357;SDS011;14831;50.474;7.616;2023-08-08T09:20:57;3.9;;;3.0;;
27357;SDS011;14831;50.474;7.616;2023-08-08T09:25:57;3.9;;;3.0;;
27357;SDS011;14831;50.474;7.616;2023-08-08T09:30:57;3.9;;;3.0;;
27357;SDS011;14831;50.474;7.616;2023-08-08T09:35:57;5.1;;;2.8;;
27357;SDS011;14831;50.474;7.616;2023-08-08T09:40:57;5.1;;;2.8;;
27357;SDS011;14831;50.474;7.616;2023-08-08T09:45:58;5.1;;;2.8;;
27357;SDS011;14831;50.474;7.616;2023-08-08T09:50:58;5.1;;;2.8;;
27357;SDS011;14831;50.474;7.616;2023-08-08T09:55:57;5.1;;;2.8;;
27357;SDS011;14831;50.474;7.616;2023-08-08T10:00:58;5.1;;;2.8;;
27357;SDS011;14831;50.474;7.616;2023-08-08T10:05:57;3.5;;;2.5;;
27357;SDS011;14831;50.474;7.616;2023-08-08T10:10:58;3.5;;;2.5;;
27357;SDS011;14831;50.474;7.616;2023-08-08T10:15:57;3.5;;;2.5;;
27357;SDS011;14831;50.474;7.616;2023-08-08T10:20:57;3.5;;;2.5;;
27357;SDS011;14831;50.474;7.616;2023-08-08T10:25:57;3.5;;;2.5;;
27357;SDS011;14831;50.474;7.616;2023-08-08T10:30:59;3.5;;;2.5;;
27357;SDS011;14831;50.474;7.616;2023-08-08T10:35:59;5.0;;;2.4;;
27357;SDS011;14831;50.474;7.616;2023-08-08T10:40:57;5.0;;;2.4;;
27357;SDS011;14831;50.474;7.616;2023-08-08T10:45:57;5.0;;;2.4;;
27357;SDS011;14831;50.474;7.616;2023-08-08T10:50:58;5.0;;;2.4;;
27357;SDS011;14831;50.474;7.616;2023-08-08T10:55:58;5.0;;;2.4;;
27357;SDS011;14831;50.474;7.616;2023-08-08T11:00:57;5.0;;;2.4;;
27357;SDS011;14831;50.474;7.616;2023-08-08T11:05:58;4.1;;;2.3;;
27357;SDS011;14831;50.474;7.616;2023-08-08T11:10:57;4.1;;;2.3;;
27357;SDS011;14831;50.474;7.616;2023-08-08T11:15:57;4.1;;;2.3;;
27357;SDS011;14831;50.474;7.616;2023-08-08T11:20:57;4.1;;;2.3;;
27357;SDS011;14831;50.474;7.616;2023-08-08T11:25:57;4.1;;;2.3;;
27357;SDS011;14831;50.474;7.616;2023-08-08T11:30:57;4.1;;;2.3;;
27357;SDS011;14831;50.474;7.616;2023-08-08T11:35:58;3.6;;;2.0;;
27357;SDS011;14831;50.474;7.616;2023-08-08T11:40:57;3.6;;;2.0;;
27357;SDS011;14831;50.474;7.616;2023-08-08T11:45:59;3.6;;;2.0;;
27357;SDS011;14831;50.474;7.616;2023-08-08T11:50:57;3.6;;;2.0;;
27357;SDS011;14831;50.474;7.616;2023-08-08T11:55:58;3.6;;;2.0;;
27357;SDS011;14831;50.474;7.616;2023-08-08T12:00:57;3.6;;;2.0;;
27357;SDS011;14831;50.474;7.616;2023-08-08T12:05:57;4.8;;;2.2;;
27357;SDS011;14831;50.474;7.616;2023-08-08T12:11:00;4.8;;;2.2;;
27357;SDS011;14831;50.474;7.616;2023-08-08T12:15:58;4.8;;;2.2;;
27357;SDS011;14831;50.474;7.616;2023-08-08T12:20:57;4.8;;;2.2;;
27357;SDS011;14831;50.474;7.616;2023-08-08T12:25:58;4.8;;;2.2;;
27357;SDS011;14831;50.474;7.616;2023-08-08T12:30:57;4.8;;;2.2;;
27357;SDS011;14831;50.474;7.616;2023-08-08T12:35:57;3.7;;;2.1;;
27357;SDS011;14831;50.474;7.616;2023-08-08T12:40:57;3.7;;;2.1;;
27357;SDS011;14831;50.474;7.616;2023-08-08T12:45:57;3.7;;;2.1;;
27357;SDS011;14831;50.474;7.616;2023-08-08T12:50:57;3.7;;;2.1;;
27357;SDS011;14831;50.474;7.616;2023-08-08T12:55:57;3.7;;;2.1;;
27357;SDS011;14831;50.474;7.616;2023-08-08T13:00:57;3.7;;;2.1;;
27357;SDS011;14831;50.474;7.616;2023-08-08T13:05:57;4.6;;;1.9;;
27357;SDS011;14831;50.474;7.616;2023-08-08T13:10:57;4.6;;;1.9;;
27357;SDS011;14831;50.474;7.616;2023-08-08T13:15:57;4.6;;;1.9;;
27357;SDS011;14831;50.474;7.616;2023-08-08T13:20:57;4.6;;;1.9;;
27357;SDS011;14831;50.474;7.616;2023-08-08T13:25:57;4.6;;;1.9;;
27357;SDS011;14831;50.474;7.616;2023-08-08T13:30:57;4.6;;;1.9;;
27357;SDS011;14831;50.474;7.616;2023-08-08T13:35:57;4.0;;;1.8;;
27357;SDS011;14831;50.474;7.616;2023-08-08T13:40:57;4.0;;;1.8;;
27357;SDS011;14831;50.474;7.616;2023-08-08T13:45:57;4.0;;;1.8;;
27357;SDS011;14831;50.474;7.616;2023-08-08T13:50:57;4.0;;;1.8;;
27357;SDS011;14831;50.474;7.616;2023-08-08T13:55:57;4.0;;;1.8;;
27357;SDS011;14831;50.474;7.616;2023-08-08T14:00:57;4.0;;;1.8;;
27357;SDS011;14831;50.474;7.616;2023-08-08T14:05:57;3.1;;;1.8;;
27357;SDS011;14831;50.474;7.616;2023-08-08T14:10:57;3.1;;;1.8;;
27357;SDS011;14831;50.474;7.616;2023-08-08T14:15:57;3.1;;;1.8;;
27357;SDS011;14831;50.474;7.616;2023-08-08T14:20:57;3.1;;;1.8;;
27357;SDS011;14831;50.474;7.616;2023-08-08T14:25:57;3.1;;;1.8;;
27357;SDS011;14831;50.474;7.616;2023-08-08T14:30:57;3.1;;;1.8;;
27357;SDS011;14831;50.474;7.616;2023-08-08T14:35:57;5.1;;;2.4;;
27357;SDS011;14831;50.474;7.616;2023-08-08T14:40:57;5.1;;;2.4;;
27357;SDS011;14831;50.474;7.616;2023-08-08T14:45:57;5.1;;;2.4;;
27357;SDS011;14831;50.474;7.616;2023-08-08T14:50:59;5.1;;;2.4;;
27357;SDS011;14831;50.474;7.616;2023-08-08T14:55:57;5.1;;;2.4;;
27357;SDS011;14831;50.474;7.616;2023-08-08T15:00:57;5.1;;;2.4;;
27357;SDS011;14831;50.474;7.616;2023-08-08T15:05:57;4.0;;;1.9;;
27357;SDS011;14831;50.474;7.616;2023-08-08T15:10:58;4.0;;;1.9;;
27357;SDS011;14831;50.474;7.616;2023-08-08T15:15:57;4.0;;;1.9;;
27357;SDS011;14831;50.474;7.616;2023-08-08T15:20:57;4.0;;;1.9;;
27357;SDS011;14831;50.474;7.616;2023-08-08T15:25:58;4.0;;;1.9;;
27357;SDS011;14831;50.474;7.616;2023-08-08T15:30:57;4.0;;;1.9;;
27357;SDS011;14831;50.474;7.616;2023-08-08T15:35:58;6.1;;;1.8;;
27357;SDS011;14831;50.474;7.616;2023-08-08T15:40:57;6.1;;;1.8;;
27357;SDS011;14831;50.474;7.616;2023-08-08T15:45:57;6.1;;;1.8;;
27357;SDS011;14831;50.474;7.616;2023-08-08T15:50:57;6.1;;;1.8;;
27357;SDS011;14831;50.474;7.616;2023-08-08T15:55:57;6.1;;;1.8;;
27357;SDS011;14831;50.474;7.616;2023-08-08T16:00:58;6.1;;;1.8;;
27357;SDS011;14831;50.474;7.616;2023-08-08T16:05:57;5.5;;;1.8;;
27357;SDS011;14831;50.474;7.616;2023-08-08T16:10:57;5.5;;;1.8;;
27357;SDS011;14831;50.474;7.616;2023-08-08T16:15:57;5.5;;;1.8;;
27357;SDS011;14831;50.474;7.616;2023-08-08T16:20:57;5.5;;;1.8;;
27357;SDS011;14831;50.474;7.616;2023-08-08T16:25:58;5.5;;;1.8;;
27357;SDS011;14831;50.474;7.616;2023-08-08T16:30:57;5.5;;;1.8;;
27357;SDS011;14831;50.474;7.616;2023-08-08T16:35:57;4.4;;;1.6;;
27357;SDS011;14831;50.474;7.616;2023-08-08T16:40:57;4.4;;;1.6;;
27357;SDS011;14831;50.474;7.616;2023-08-08T16:45:57;4.4;;;1.6;;
27357;SDS011;14831;50.474;7.616;2023-08-08T16:50:58;4.4;;;1.6;;
27357;SDS011;14831;50.474;7.616;2023-08-08T16:55:57;4.4;;;1.6;;
27357;SDS011;14831;50.474;7.616;2023-08-08T17:00:57;4.4;;;1.6;;
27357;SDS011;14831;50.474;7.616;2023-08-08T17:05:57;3.3;;;1.8;;
27357;SDS011;14831;50.474;7.616;2023-08-08T17:10:57;3.3;;;1.8;;
27357;SDS011;14831;50.474;7.616;2023-08-08T17:15:58;3.3;;;1.8;;
27357;SDS011;14831;50.474;7.616;2023-08-08T17:20:57;3.3;;;1.8;;
27357;SDS011;14831;50.474;7.616;2023-08-08T17:25:57;3.3;;;1.8;;
27357;SDS011;14831;50.474;7.616;2023-08-08T17:30:57;3.3;;;1.8;;
27357;SDS011;14831;50.474;7.616;2023-08-08T17:35:57;3.3;;;1.5;;
27357;SDS011;14831;50.474;7.616;2023-08-08T17:40:57;3.3;;;1.5;;
27357;SDS011;14831;50.474;7.616;2023-08-08T17:45:57;3.3;;;1.5;;
27357;SDS011;14831;50.474;7.616;2023-08-08T17:50:58;3.3;;;1.5;;
27357;SDS011;14831;50.474;7.616;2023-08-08T17:55:57;3.3;;;1.5;;
27357;SDS011;14831;50.474;7.616;2023-08-08T18:00:57;3.3;;;1.5;;
27357;SDS011;14831;50.474;7.616;2023-08-08T18:05:57;1.9;;;1.4;;
27357;SDS011;14831;50.474;7.616;2023-08-08T18:10:57;1.9;;;1.4;;
27357;SDS011;14831;50.474;7.616;2023-08-08T18:15:57;1.9;;;1.4;;
27357;SDS011;14831;50.474;7.616;2023-08-08T18:20:57;1.9;;;1.4;;
27357;SDS011;14831;50.474;7.616;2023-08-08T18:25:57;1.9;;;1.4;;
27357;SDS011;14831;50.474;7.616;2023-08-08T18:30:57;1.9;;;1.4;;
27357;SDS011;14831;50.474;7.616;2023-08-08T18:35:57;2.1;;;1.3;;
27357;SDS011;14831;50.474;7.616;2023-08-08T18:40:57;2.1;;;1.3;;
27357;SDS011;14831;50.474;7.616;2023-08-08T18:45:57;2.1;;;1.3;;
27357;SDS011;14831;50.474;7.616;2023-08-08T18:50:57;2.1;;;1.3;;
27357;SDS011;14831;50.474;7.616;2023-08-08T18:55:57;2.1;;;1.3;;
27357;SDS011;14831;50.474;7.616;2023-08-08T19:00:57;2.1;;;1.3;;
27357;SDS011;14831;50.474;7.616;2023-08-08T19:05:57;2.2;;;1.3;;
27357;SDS011;14831;50.474;7.616;2023-08-08T19:10:57;2.2;;;1.3;;
27357;SDS011;14831;50.474;7.616;2023-08-08T19:15:57;2.2;;;1.3;;
27357;SDS011;14831;50.474;7.616;2023-08-08T19:20:57;2.2;;;1.3;;
27357;SDS011;14831;50.474;7.616;2023-08-08T19:25:58;2.2;;;1.3;;
27357;SDS011;14831;50.474;7.616;2023-08-08T19:30:57;2.2;;;1.3;;
27357;SDS011;14831;50.474;7.616;2023-08-08T19:35:57;9.6;;;1.7;;
27357;SDS011;14831;50.474;7.616;2023-08-08T19:40:57;9.6;;;1.7;;
27357;SDS011;14831;50.474;7.616;2023-08-08T19:45:57;9.6;;;1.7;;
27357;SDS011;14831;50.474;7.616;2023-08-08T19:50:57;9.6;;;1.7;;
27357;SDS011;14831;50.474;7.616;2023-08-08T19:55:57;9.6;;;1.7;;
27357;SDS011;14831;50.474;7.616;2023-08-08T20:00:57;9.6;;;1.7;;
27357;SDS011;14831;50.474;7.616;2023-08-08T20:05:57;5.7;;;2.2;;
27357;SDS011;14831;50.474;7.616;2023-08-08T20:10:57;5.7;;;2.2;;
27357;SDS011;14831;50.474;7.616;2023-08-08T20:15:57;5.7;;;2.2;;
27357;SDS011;14831;50.474;7.616;2023-08-08T20:20:57;5.7;;;2.2;;
27357;SDS011;14831;50.474;7.616;2023-08-08T20:25:57;5.7;;;2.2;;
27357;SDS011;14831;50.474;7.616;2023-08-08T20:30:57;5.7;;;2.2;;
27357;SDS011;14831;50.474;7.616;2023-08-08T20:35:57;5.2;;;2.1;;
27357;SDS011;14831;50.474;7.616;2023-08-08T20:40:57;5.2;;;2.1;;
27357;SDS011;14831;50.474;7.616;2023-08-08T20:45:57;5.2;;;2.1;;
27357;SDS011;14831;50.474;7.616;2023-08-08T20:50:57;5.2;;;2.1;;
27357;SDS011;14831;50.474;7.616;2023-08-08T20:55:57;5.2;;;2.1;;
27357;SDS011;14831;50.474;7.616;2023-08-08T21:00:57;5.2;;;2.1;;
27357;SDS011;14831;50.474;7.616;2023-08-08T21:05:57;4.8;;;2.2;;
27357;SDS011;14831;50.474;7.616;2023-08-08T21:10:57;4.8;;;2.2;;
27357;SDS011;14831;50.474;7.616;2023-08-08T21:15:57;4.8;;;2.2;;
27357;SDS011;14831;50.474;7.616;2023-08-08T21:20:57;4.8;;;2.2;;
27357;SDS011;14831;50.474;7.616;2023-08-08T21:25:57;4.8;;;2.2;;
27357;SDS011;14831;50.474;7.616;2023-08-08T21:30:57;4.8;;;2.2;;
27357;SDS011;14831;50.474;7.616;2023-08-08T21:35:58;3.0;;;2.1;;
27357;SDS011;14831;50.474;7.616;2023-08-08T21:40:57;3.0;;;2.1;;
27357;SDS011;14831;50.474;7.616;2023-08-08T21:45:57;3.0;;;2.1;;
27357;SDS011;14831;50.474;7.616;2023-08-08T21:50:57;3.0;;;2.1;;
27357;SDS011;14831;50.474;7.616;2023-08-08T21:55:57;3.0;;;2.1;;
27357;SDS011;14831;50.474;7.616;2023-08-08T22:00:57;3.0;;;2.1;;
27357;SDS011;14831;50.474;7.616;2023-08-08T22:05:57;3.8;;;2.5;;
27357;SDS011;14831;50.474;7.616;2023-08-08T22:10:57;3.8;;;2.5;;
27357;SDS011;14831;50.474;7.616;2023-08-08T22:15:57;3.8;;;2.5;;
27357;SDS011;14831;50.474;7.616;2023-08-08T22:20:57;3.8;;;2.5;;
27357;SDS011;14831;50.474;7.616;2023-08-08T22:25:57;3.8;;;2.5;;
27357;SDS011;14831;50.474;7.616;2023-08-08T22:30:57;3.8;;;2.5;;
27357;SDS011;14831;50.474;7.616;2023-08-08T22:35:57;5.6;;;3.0;;
27357;SDS011;14831;50.474;7.616;2023-08-08T22:40:57;5.6;;;3.0;;
27357;SDS011;14831;50.474;7.616;2023-08-08T22:45:57;5.6;;;3.0;;
27357;SDS011;14831;50.474;7.616;2023-08-08T22:50:57;5.6;;;3.0;;
27357;SDS011;14831;50.474;7.616;2023-08-08T22:55:57;5.6;;;3.0;;
27357;SDS011;14831;50.474;7.616;2023-08-08T23:00:57;5.6;;;3.0;;
27357;SDS011;14831;50.474;7.616;2023-08-08T23:05:57;4.8;;;2.9;;
27357;SDS011;14831;50.474;7.616;2023-08-08T23:10:58;4.8;;;2.9;;
27357;SDS011;14831;50.474;7.616;2023-08-08T23:15:57;4.8;;;2.9;;
27357;SDS011;14831;50.474;7.616;2023-08-08T23:20:57;4.8;;;2.9;;
27357;SDS011;14831;50.474;7.616;2023-08-08T23:25:57;4.8;;;2.9;;
27357;SDS011;14831;50.474;7.616;2023-08-08T23:30:57;4.8;;;2.9;;
27357;SDS011;14831;50.474;7.616;2023-08-08T23:35:57;3.5;;;2.8;;
27357;SDS011;14831;50.474;7.616;2023-08-08T23:40:57;3.5;;;2.8;;
27357;SDS011;14831;50.474;7.616;2023-08-08T23:45:57;3.5;;;2.8;;
27357;SDS011;14831;50.474;7.616;2023-08-08T23:50:57;3.5;;;2.8;;
27357;SDS011;14831;50.474;7.616;2023-08-08T23:55:57;3.5;;;2.8;;
